NCAR-RAP Real-Time Weather Data

Output produced by METARs form (17 December 2018  07:01 UTC)
found at http://weather.rap.ucar.edu/surface/
 
RJAH 170600Z 07008KT 9999 FEW030 14/04 Q1002
RJAH 170500Z 07005KT 040V120 9999 FEW020 13/04 Q1002
RJAH 170400Z 05003KT 010V080 9999 FEW020 SCT100 12/05 Q1002
RJAH 170300Z 04004KT 010V070 9999 FEW020 BKN100 09/05 Q1003
RJAH 170200Z VRB02KT 9999 FEW020 SCT035 BKN100 06/03 Q1005
RJAH 170141Z 27002KT 9999 FEW020 SCT035 BKN080 05/02 Q1006 RMK 1SC020 3SC035 7AC080 A2971 VIS S 5KM
RJAH 170100Z VRB03KT 5000 -RA BR FEW020 BKN080 04/03 Q1007
RJAH 170048Z VRB03KT 5000 -RA BR FEW020 BKN080 04/03 Q1007 RMK 1SC020 7AS080 A2974 VIS W-N 15KM
RJAH 170021Z VRB01KT 9999 -RA FEW025 OVC080 04/02 Q1007 RMK 1SC025 8AS080 A2974 VIS SE-SW 5KM FCST AMD 0006 BECMG 0001 27003KT TEMPO 0003 5000 -RA BR FEW020SC BKN030SC BKN050SC BECMG 0303 NSW TEMPO 0305 FEW015SC BKN030SC
RJAH 170000Z VRB02KT 9999 -RA FEW025 OVC080 04/03 Q1007
RJAH 162300Z VRB02KT 9999 -RA FEW025 BKN050 OVC080 03/01 Q1009
RJAH 162200Z 32005KT 9999 -RA FEW025 BKN050 OVC080 03/00 Q1009
RJAH 162100Z 27004KT 240V320 9999 -SHRA FEW025 SCT050 BKN080 03/M01 Q1010
RJAH 162000Z VRB02KT 9999 -SHRA FEW025 SCT050 BKN080 02/M01 Q1009
RJAH 161900Z 22003KT 9999 -SHRA FEW025 BKN100 02/M01 Q1010
RJAH 161800Z 00000KT 9999 FEW025 BKN120 01/M02 Q1011
RJAH 161700Z VRB01KT 9999 FEW025 BKN120 M01/M02 Q1012
RJAH 161617Z VRB01KT 9999 FEW025 BKN120 M01/M02 Q1012 RMK 1SC025 5AC120 A2990
RJAH 161600Z 00000KT 9999 FEW025 SCT120 M01/M03 Q1013
RJAH 161500Z VRB01KT 9999 FEW025 SCT/// M00/M02 Q1014
RJAH 161400Z VRB01KT 9999 FEW025 SCT/// M00/M02 Q1015
RJAH 161300Z VRB01KT 9999 FEW025 SCT130 00/M02 Q1015
RJAH 161200Z 20003KT 9999 FEW030 SCT130 BKN/// 02/M02 Q1016
RJAH 161100Z VRB02KT 9999 FEW030 BKN130 BKN/// 03/M02 Q1017
RJAH 161000Z 18002KT 9999 FEW030 BKN070 BKN120 04/M02 Q1018
RJAH 160900Z 31003KT 9999 FEW030 BKN150 04/M02 Q1019
RJAH 160800Z 34003KT 9999 FEW030 SCT080 BKN150 04/M01 Q1019
RJAH 160721Z VRB03KT 9999 FEW030 SCT040 BKN080 05/M02 Q1020 RMK 1SC030 4SC040 7AC080 A3013
RJAH 160700Z 00000KT 9999 -RA FEW030 BKN040 06/M04 Q1020
RJAH 160600Z 01004KT 9999 -RA FEW020 BKN040 06/M04 Q1020
RJAH 160533Z 34004KT 9999 -RA FEW020 BKN040 06/M04 Q1021 RMK 1SC020 7SC040 A3016
RJAH 160500Z 26002KT 9999 FEW020 BKN050 BKN210 07/M04 Q1021
RJAH 160400Z 27004KT 230V300 9999 FEW020 BKN050 BKN210 07/M05 Q1022
RJAH 160300Z 25004KT 220V280 9999 FEW020 BKN050 07/M05 Q1023
RJAH 160204Z VRB01KT 9999 FEW020 BKN050 BKN230 06/M06 Q1023 RMK 1CU020 5SC050 A3023
RJAH 160200Z VRB02KT 9999 FEW020 SCT050 BKN230 07/M06 Q1024
RJAH 160100Z 29003KT 270V330 9999 FEW020 SCT050 BKN250 04/M04 Q1025
RJAH 160000Z VRB01KT 9999 FEW020 BKN250 02/M03 Q1025
RJAH 151300Z 36003KT 320V060 9999 FEW030 M02/M08 Q1027
RJAH 151200Z 35003KT 320V030 9999 FEW040 00/M07 Q1027
RJAH 151100Z 05005KT 9999 FEW040 00/M06 Q1027
RJAH 151000Z 03002KT 9999 FEW040 00/M07 Q1027
RJAH 150900Z 05003KT 9999 FEW040 03/M08 Q1026
RJAH 150800Z 02005KT 9999 FEW040 04/M08 Q1026
RJAH 150700Z 35004KT 9999 FEW040 06/M07 Q1025
RJAH 150600Z 34005KT 9999 FEW040 08/M08 Q1025
RJAH 150500Z 32005KT 260V360 9999 FEW040 08/M08 Q1025
RJAH 150400Z 31006KT 260V010 9999 FEW040 08/M06 Q1024
RJAH 150300Z 32005KT 280V030 9999 FEW020 07/M07 Q1025
RJAH 150200Z 33007KT 9999 FEW020 07/M06 Q1025
RJAH 150100Z 36007KT 330V030 9999 FEW030 06/M06 Q1026
RJAH 150000Z 36004KT 320V040 9999 FEW030 03/M05 Q1026
RJAH 142300Z VRB02KT 9999 FEW030 M01/M05 Q1025
RJAH 142200Z VRB02KT 9999 FEW030 M01/M07 Q1025
RJAH 142100Z VRB01KT 9999 FEW030 M02/M07 Q1024
RJAH 142000Z 01003KT 330V030 9999 FEW060 M04/M08 Q1023